Terminal Aerodrome Forecast
Issued by NWS Jackson, MS

Home | Current Version | Previous Version | Text Only | Print | Product List | Glossary On
Versions: 1 2 3 4 5 6 7 8 9 10 11 12 13 14 15
000
FTUS44 KJAN 161700
TAFHBG
TAF
KHBG 161720Z 1618/1718 01005KT P6SM BKN120
     FM162000 36005KT P6SM VCTS BKN040CB BKN120
     FM170100 VRB02KT P6SM SCT100
     FM170900 00000KT 4SM BR SCT005
     FM171300 01003KT P6SM FEW030=

USA.gov is the U.S. government's official web portal to all federal, state and local government web resources and services.